createdAt,value
2018-12-09T00:00:31.283Z,499
2018-12-09T00:01:38.492Z,501
2018-12-09T00:02:45.436Z,500
2018-12-09T00:03:52.636Z,500
2018-12-09T00:04:59.860Z,499
2018-12-09T00:06:07.070Z,497
2018-12-09T00:07:14.286Z,496
2018-12-09T00:08:21.497Z,495
2018-12-09T00:09:28.715Z,495
2018-12-09T00:10:35.920Z,497
2018-12-09T00:11:43.164Z,497
2018-12-09T00:12:50.097Z,497
2018-12-09T00:13:57.311Z,495
2018-12-09T00:15:04.241Z,495
2018-12-09T00:16:11.460Z,494
2018-12-09T00:17:18.669Z,497
2018-12-09T00:18:25.891Z,498
2018-12-09T00:19:33.091Z,498
2018-12-09T00:20:40.037Z,500
2018-12-09T00:21:47.236Z,496
2018-12-09T00:22:54.457Z,497
2018-12-09T00:24:01.667Z,498
2018-12-09T00:25:08.613Z,499
2018-12-09T00:26:15.863Z,497
2018-12-09T00:27:23.142Z,497
2018-12-09T00:28:30.349Z,498
2018-12-09T00:29:37.558Z,496
2018-12-09T00:30:44.759Z,492
2018-12-09T00:31:51.431Z,497
2018-12-09T00:32:58.654Z,495
2018-12-09T00:34:05.875Z,498
2018-12-09T00:35:13.072Z,502
2018-12-09T00:36:20.296Z,499
2018-12-09T00:37:27.500Z,502
2018-12-09T00:38:34.721Z,502
2018-12-09T00:39:41.935Z,500
2018-12-09T00:40:49.155Z,497
2018-12-09T00:41:56.359Z,499
2018-12-09T00:43:03.300Z,497
2018-12-09T00:44:10.500Z,497
2018-12-09T00:45:17.448Z,498
2018-12-09T00:46:24.653Z,500
2018-12-09T00:47:31.602Z,501
2018-12-09T00:48:38.808Z,498
2018-12-09T00:49:46.022Z,494
2018-12-09T00:50:53.219Z,496
2018-12-09T00:52:00.443Z,498
2018-12-09T00:53:07.379Z,500
2018-12-09T00:54:14.681Z,501
2018-12-09T00:55:21.887Z,499
2018-12-09T00:56:29.105Z,498
2018-12-09T00:57:36.306Z,498
2018-12-09T00:58:42.979Z,495
2018-12-09T00:59:50.184Z,495
2018-12-09T01:00:57.401Z,494
2018-12-09T01:02:04.606Z,495
2018-12-09T01:03:11.830Z,495
2018-12-09T01:04:18.757Z,496
2018-12-09T01:05:25.976Z,495
2018-12-09T01:06:33.179Z,496
2018-12-09T01:07:40.405Z,495
2018-12-09T01:08:47.607Z,495
2018-12-09T01:09:54.550Z,495
2018-12-09T01:11:01.756Z,495
2018-12-09T01:12:08.702Z,493
2018-12-09T01:13:15.902Z,494
2018-12-09T01:14:23.124Z,495
2018-12-09T01:15:30.326Z,494
2018-12-09T01:16:37.543Z,494
2018-12-09T01:17:44.740Z,496
2018-12-09T01:18:51.957Z,496
2018-12-09T01:19:59.159Z,496
2018-12-09T01:21:06.113Z,496
2018-12-09T01:22:13.318Z,496
2018-12-09T01:23:20.542Z,497
2018-12-09T01:24:27.743Z,497
2018-12-09T01:25:34.963Z,495
2018-12-09T01:26:42.171Z,496
2018-12-09T01:27:49.390Z,496
2018-12-09T01:28:56.593Z,494
2018-12-09T01:30:04.025Z,493
2018-12-09T01:31:10.679Z,493
2018-12-09T01:32:17.896Z,493
2018-12-09T01:33:24.825Z,493
2018-12-09T01:34:32.061Z,494
2018-12-09T01:35:39.259Z,494
2018-12-09T01:36:46.474Z,494
2018-12-09T01:37:53.547Z,494
2018-12-09T01:39:00.761Z,494
2018-12-09T01:40:07.974Z,493
2018-12-09T01:41:15.187Z,493
2018-12-09T01:42:22.391Z,493
2018-12-09T01:43:29.607Z,491
2018-12-09T01:44:36.806Z,487
2018-12-09T01:45:43.482Z,487
2018-12-09T01:46:50.684Z,486
2018-12-09T01:47:57.900Z,486
2018-12-09T01:49:05.100Z,489
2018-12-09T01:50:12.314Z,488
2018-12-09T01:51:19.516Z,485
2018-12-09T01:52:26.804Z,484
2018-12-09T01:53:33.731Z,484
2018-12-09T01:54:40.955Z,481
2018-12-09T01:55:48.169Z,479
2018-12-09T01:56:55.382Z,477
2018-12-09T01:58:02.310Z,476
2018-12-09T01:59:09.520Z,475
2018-12-09T02:00:16.727Z,475
2018-12-09T02:01:23.950Z,474
2018-12-09T02:02:31.158Z,475
2018-12-09T02:03:38.372Z,473
2018-12-09T02:04:45.299Z,473
2018-12-09T02:05:52.636Z,474
2018-12-09T02:06:59.841Z,473
2018-12-09T02:08:07.054Z,473
2018-12-09T02:09:13.986Z,474
2018-12-09T02:10:21.203Z,473
2018-12-09T02:11:28.408Z,473
2018-12-09T02:12:35.619Z,474
2018-12-09T02:13:42.825Z,473
2018-12-09T02:14:49.765Z,472
2018-12-09T02:15:56.424Z,473
2018-12-09T02:17:03.120Z,472
2018-12-09T02:18:10.323Z,473
2018-12-09T02:19:17.545Z,473
2018-12-09T02:20:24.750Z,473
2018-12-09T02:21:31.969Z,473
2018-12-09T02:22:38.899Z,472
2018-12-09T02:23:46.195Z,472
2018-12-09T02:24:53.406Z,473
2018-12-09T02:26:00.618Z,473
2018-12-09T02:27:07.823Z,472
2018-12-09T02:28:14.767Z,472
2018-12-09T02:29:21.966Z,473
2018-12-09T02:30:29.185Z,472
2018-12-09T02:31:36.387Z,472
2018-12-09T02:32:43.602Z,473
2018-12-09T02:33:50.807Z,474
2018-12-09T02:34:58.025Z,474
2018-12-09T02:36:05.245Z,472
2018-12-09T02:37:12.470Z,473
2018-12-09T02:38:19.674Z,474
2018-12-09T02:39:26.899Z,473
2018-12-09T02:40:34.099Z,472
2018-12-09T02:41:41.319Z,472
2018-12-09T02:42:48.520Z,472
2018-12-09T02:43:55.462Z,472
2018-12-09T02:45:02.670Z,473
2018-12-09T02:46:09.880Z,472
2018-12-09T02:47:17.092Z,473
2018-12-09T02:48:24.309Z,472
2018-12-09T02:49:31.570Z,471
2018-12-09T02:50:38.781Z,471
2018-12-09T02:51:45.980Z,470
2018-12-09T02:52:52.930Z,469
2018-12-09T02:54:00.131Z,470
2018-12-09T02:55:07.352Z,491
2018-12-09T02:56:14.577Z,495
2018-12-09T02:57:21.798Z,495
2018-12-09T02:58:28.996Z,496
2018-12-09T02:59:36.215Z,496
2018-12-09T03:00:43.425Z,491
2018-12-09T03:01:50.635Z,487
2018-12-09T03:02:57.840Z,496
2018-12-09T03:04:05.055Z,500
2018-12-09T03:05:11.992Z,506
2018-12-09T03:06:19.219Z,506
2018-12-09T03:07:26.159Z,503
2018-12-09T03:08:33.372Z,501
2018-12-09T03:09:40.572Z,500
2018-12-09T03:10:47.790Z,501
2018-12-09T03:11:54.723Z,505
2018-12-09T03:13:01.671Z,503
2018-12-09T03:14:08.873Z,500
2018-12-09T03:15:15.813Z,495
2018-12-09T03:16:23.018Z,496
2018-12-09T03:17:30.240Z,490
2018-12-09T03:18:37.445Z,493
2018-12-09T03:19:44.667Z,490
2018-12-09T03:20:52.216Z,490
2018-12-09T03:21:59.904Z,491
2018-12-09T03:23:08.325Z,498
2018-12-09T03:24:16.691Z,501
2018-12-09T03:25:24.830Z,501
2018-12-09T03:26:32.626Z,499
2018-12-09T03:27:39.879Z,494
2018-12-09T03:28:47.154Z,492
2018-12-09T03:29:54.365Z,490
2018-12-09T03:31:01.587Z,489
2018-12-09T03:32:08.791Z,488
2018-12-09T03:33:16.003Z,488
2018-12-09T03:34:23.202Z,487
2018-12-09T03:35:30.160Z,488
2018-12-09T03:36:37.445Z,489
2018-12-09T03:37:44.393Z,489
2018-12-09T03:38:51.596Z,488
2018-12-09T03:39:58.818Z,488
2018-12-09T03:41:06.020Z,487
2018-12-09T03:42:13.239Z,489
2018-12-09T03:43:20.440Z,490
2018-12-09T03:44:27.662Z,486
2018-12-09T03:45:34.869Z,486
2018-12-09T03:46:42.077Z,483
2018-12-09T03:47:49.094Z,479
2018-12-09T03:48:56.317Z,474
2018-12-09T03:50:03.244Z,491
2018-12-09T03:51:09.636Z,493
2018-12-09T03:52:16.835Z,494
2018-12-09T03:53:24.055Z,494
2018-12-09T03:54:30.984Z,494
2018-12-09T03:55:38.207Z,494
2018-12-09T03:56:45.138Z,492
2018-12-09T03:57:52.355Z,492
2018-12-09T03:58:59.560Z,489
2018-12-09T04:00:06.504Z,486
2018-12-09T04:01:13.435Z,486
2018-12-09T04:02:20.659Z,484
2018-12-09T04:03:28.094Z,478
2018-12-09T04:04:35.306Z,485
2018-12-09T04:05:42.505Z,488
2018-12-09T04:06:49.723Z,483
2018-12-09T04:07:56.930Z,475
2018-12-09T04:09:03.887Z,473
2018-12-09T04:10:10.809Z,471
2018-12-09T04:11:18.021Z,470
2018-12-09T04:12:25.228Z,470
2018-12-09T04:13:32.176Z,468
2018-12-09T04:14:39.385Z,468
2018-12-09T04:15:46.613Z,468
2018-12-09T04:16:53.814Z,467
2018-12-09T04:18:00.760Z,467
2018-12-09T04:19:07.973Z,466
2018-12-09T04:20:15.204Z,466
2018-12-09T04:21:22.409Z,467
2018-12-09T04:22:29.625Z,467
2018-12-09T04:23:36.827Z,467
2018-12-09T04:24:43.775Z,467
2018-12-09T04:25:50.984Z,467
2018-12-09T04:26:57.925Z,468
2018-12-09T04:28:05.132Z,467
2018-12-09T04:29:12.347Z,469
2018-12-09T04:30:19.553Z,467
2018-12-09T04:31:26.763Z,468
2018-12-09T04:32:33.694Z,467
2018-12-09T04:33:40.907Z,467
2018-12-09T04:34:48.111Z,471
2018-12-09T04:35:55.327Z,468
2018-12-09T04:37:02.557Z,475
2018-12-09T04:38:09.504Z,483
2018-12-09T04:39:16.716Z,480
2018-12-09T04:40:23.933Z,478
2018-12-09T04:41:31.139Z,475
2018-12-09T04:42:37.824Z,474
2018-12-09T04:43:45.181Z,471
2018-12-09T04:44:52.120Z,470
2018-12-09T04:45:59.058Z,470
2018-12-09T04:47:06.274Z,469
2018-12-09T04:48:13.204Z,467
2018-12-09T04:49:20.416Z,468
2018-12-09T04:50:27.347Z,469
2018-12-09T04:51:34.564Z,469
2018-12-09T04:52:41.770Z,469
2018-12-09T04:53:48.993Z,468
2018-12-09T04:54:56.195Z,469
2018-12-09T04:56:03.143Z,469
2018-12-09T04:57:10.349Z,467
2018-12-09T04:58:17.283Z,468
2018-12-09T04:59:24.510Z,468
2018-12-09T05:00:31.452Z,469
2018-12-09T05:01:38.654Z,468
2018-12-09T05:02:45.681Z,467
2018-12-09T05:03:52.613Z,468
2018-12-09T05:04:59.562Z,469
2018-12-09T05:06:06.495Z,468
2018-12-09T05:07:13.436Z,468
2018-12-09T05:08:20.640Z,468
2018-12-09T05:09:27.852Z,467
2018-12-09T05:10:35.063Z,468
2018-12-09T05:11:42.276Z,468
2018-12-09T05:12:49.210Z,468
2018-12-09T05:13:56.155Z,467
2018-12-09T05:15:03.098Z,467
2018-12-09T05:16:09.765Z,468
2018-12-09T05:17:16.409Z,467
2018-12-09T05:18:23.359Z,468
2018-12-09T05:19:30.557Z,468
2018-12-09T05:20:37.782Z,467
2018-12-09T05:21:44.991Z,467
2018-12-09T05:22:52.006Z,469
2018-12-09T05:23:59.210Z,468
2018-12-09T05:25:06.427Z,468
2018-12-09T05:26:13.628Z,469
2018-12-09T05:27:20.579Z,467
2018-12-09T05:28:27.781Z,468
2018-12-09T05:29:34.717Z,467
2018-12-09T05:30:41.643Z,468
2018-12-09T05:31:48.865Z,467
2018-12-09T05:32:56.070Z,466
2018-12-09T05:34:03.284Z,466
2018-12-09T05:35:10.301Z,466
2018-12-09T05:36:17.430Z,467
2018-12-09T05:37:24.515Z,466
2018-12-09T05:38:31.910Z,466
2018-12-09T05:39:39.027Z,477
2018-12-09T05:40:46.411Z,476
2018-12-09T05:41:53.778Z,473
2018-12-09T05:43:01.200Z,470
2018-12-09T05:44:08.459Z,471
2018-12-09T05:45:15.589Z,485
2018-12-09T05:46:22.646Z,487
2018-12-09T05:47:30.179Z,490
2018-12-09T05:48:37.534Z,490
2018-12-09T05:49:44.824Z,482
2018-12-09T05:50:51.991Z,488
2018-12-09T05:51:59.256Z,487
2018-12-09T05:53:06.215Z,487
2018-12-09T05:54:13.605Z,486
2018-12-09T05:55:21.005Z,491
2018-12-09T05:56:28.299Z,495
2018-12-09T05:57:35.621Z,495
2018-12-09T05:58:42.839Z,494
2018-12-09T05:59:49.950Z,495
2018-12-09T06:00:57.322Z,495
2018-12-09T06:02:04.638Z,493
2018-12-09T06:03:11.951Z,494
2018-12-09T06:04:19.338Z,497
2018-12-09T06:05:26.272Z,494
2018-12-09T06:06:33.067Z,495
2018-12-09T06:07:40.535Z,493
2018-12-09T06:08:47.561Z,493
2018-12-09T06:09:55.037Z,491
2018-12-09T06:11:02.509Z,490
2018-12-09T06:12:09.945Z,488
2018-12-09T06:13:17.271Z,488
2018-12-09T06:14:24.540Z,485
2018-12-09T06:15:31.758Z,486
2018-12-09T06:16:38.858Z,480
2018-12-09T06:17:46.148Z,477
2018-12-09T06:18:53.362Z,474
2018-12-09T06:20:00.789Z,472
2018-12-09T06:21:08.027Z,469
2018-12-09T06:22:14.955Z,469
2018-12-09T06:23:22.174Z,469
2018-12-09T06:24:29.182Z,469
2018-12-09T06:25:36.311Z,468
2018-12-09T06:26:43.275Z,468
2018-12-09T06:27:50.506Z,468
2018-12-09T06:28:57.587Z,468
2018-12-09T06:30:04.744Z,466
2018-12-09T06:31:12.227Z,466
2018-12-09T06:32:19.695Z,467
2018-12-09T06:33:27.017Z,468
2018-12-09T06:34:34.335Z,468
2018-12-09T06:35:41.582Z,466
2018-12-09T06:36:48.976Z,467
2018-12-09T06:37:56.187Z,468
2018-12-09T06:39:03.529Z,467
2018-12-09T06:40:10.727Z,465
2018-12-09T06:41:17.804Z,465
2018-12-09T06:42:25.253Z,466
2018-12-09T06:43:32.317Z,466
2018-12-09T06:44:39.685Z,467
2018-12-09T06:45:46.969Z,467
2018-12-09T06:46:54.291Z,467
2018-12-09T06:48:01.560Z,467
2018-12-09T06:49:09.079Z,467
2018-12-09T06:50:16.335Z,466
2018-12-09T06:51:23.725Z,466
2018-12-09T06:52:31.376Z,466
2018-12-09T06:53:38.857Z,465
2018-12-09T06:54:48.500Z,465
2018-12-09T06:55:55.798Z,465
2018-12-09T06:57:03.147Z,465
2018-12-09T06:58:10.520Z,465
2018-12-09T06:59:18.075Z,465
2018-12-09T07:00:25.504Z,464
2018-12-09T07:01:33.087Z,465
2018-12-09T07:02:40.733Z,464
2018-12-09T07:03:47.976Z,465
2018-12-09T07:04:55.623Z,465
2018-12-09T07:06:03.164Z,464
2018-12-09T07:07:11.000Z,465
2018-12-09T07:08:18.765Z,463
2018-12-09T07:09:26.451Z,466
2018-12-09T07:10:33.937Z,479
2018-12-09T07:11:41.577Z,487
2018-12-09T07:12:49.047Z,488
2018-12-09T07:13:56.552Z,484
2018-12-09T07:15:03.935Z,487
2018-12-09T07:16:11.335Z,488
2018-12-09T07:17:18.696Z,488
2018-12-09T07:18:26.016Z,491
2018-12-09T07:19:33.397Z,496
2018-12-09T07:20:40.758Z,496
2018-12-09T07:21:48.085Z,491
2018-12-09T07:22:55.478Z,490
2018-12-09T07:24:02.260Z,487
2018-12-09T07:25:09.893Z,491
2018-12-09T07:26:17.476Z,486
2018-12-09T07:27:24.482Z,485
2018-12-09T07:28:31.720Z,484
2018-12-09T07:29:38.839Z,482
2018-12-09T07:30:46.674Z,481
2018-12-09T07:31:54.217Z,479
2018-12-09T07:33:01.706Z,480
2018-12-09T07:34:09.209Z,480
2018-12-09T07:35:16.718Z,479
2018-12-09T07:36:23.795Z,474
2018-12-09T07:37:31.423Z,469
2018-12-09T07:38:38.684Z,466
2018-12-09T07:39:46.511Z,465
2018-12-09T07:40:55.228Z,461
2018-12-09T07:42:02.179Z,460
2018-12-09T07:43:09.464Z,461
2018-12-09T07:44:16.485Z,459
2018-12-09T07:45:23.947Z,459
2018-12-09T07:46:31.247Z,460
2018-12-09T07:47:38.765Z,459
2018-12-09T07:48:46.292Z,459
2018-12-09T07:49:53.720Z,480
2018-12-09T07:51:01.096Z,485
2018-12-09T07:52:08.012Z,486
2018-12-09T07:53:15.228Z,480
2018-12-09T07:54:22.435Z,481
2018-12-09T07:55:29.653Z,486
2018-12-09T07:56:36.857Z,488
2018-12-09T07:57:44.065Z,491
2018-12-09T07:58:51.351Z,493
2018-12-09T07:59:58.568Z,491
2018-12-09T08:01:05.773Z,486
2018-12-09T08:02:12.987Z,486
2018-12-09T08:03:20.190Z,489
2018-12-09T08:04:27.404Z,490
2018-12-09T08:05:34.613Z,491
2018-12-09T08:06:41.811Z,493
2018-12-09T08:07:49.095Z,494
2018-12-09T08:08:57.915Z,494
2018-12-09T08:10:05.124Z,493
2018-12-09T08:11:12.345Z,490
2018-12-09T08:12:19.003Z,479
2018-12-09T08:13:26.222Z,477
2018-12-09T08:14:33.426Z,473
2018-12-09T08:15:40.636Z,471
2018-12-09T08:16:47.841Z,470
2018-12-09T08:17:55.051Z,469
2018-12-09T08:19:02.256Z,467
2018-12-09T08:20:09.209Z,466
2018-12-09T08:21:16.413Z,468
2018-12-09T08:22:23.632Z,473
2018-12-09T08:23:30.557Z,472
2018-12-09T08:24:37.760Z,472
2018-12-09T08:25:44.977Z,466
2018-12-09T08:26:51.924Z,472
2018-12-09T08:27:59.129Z,468
2018-12-09T08:29:06.364Z,469
2018-12-09T08:30:13.568Z,463
2018-12-09T08:31:20.784Z,470
2018-12-09T08:32:27.711Z,471
2018-12-09T08:33:34.914Z,472
2018-12-09T08:34:41.851Z,475
2018-12-09T08:35:49.064Z,474
2018-12-09T08:36:56.338Z,473
2018-12-09T08:38:03.552Z,474
2018-12-09T08:39:10.488Z,472
2018-12-09T08:40:17.711Z,473
2018-12-09T08:41:24.652Z,474
2018-12-09T08:42:31.868Z,475
2018-12-09T08:43:39.095Z,476
2018-12-09T08:44:46.317Z,477
2018-12-09T08:45:53.525Z,478
2018-12-09T08:47:00.744Z,478
2018-12-09T08:48:07.951Z,478
2018-12-09T08:49:14.902Z,476
2018-12-09T08:50:22.103Z,475
2018-12-09T08:51:29.321Z,473
2018-12-09T08:52:36.530Z,467
2018-12-09T08:53:43.756Z,464
2018-12-09T08:54:50.959Z,464
2018-12-09T08:55:58.180Z,463
2018-12-09T08:57:05.116Z,462
2018-12-09T08:58:12.057Z,462
2018-12-09T08:59:18.980Z,462
2018-12-09T09:00:26.203Z,458
2018-12-09T09:01:33.410Z,451
2018-12-09T09:02:40.384Z,446
2018-12-09T09:03:47.589Z,442
2018-12-09T09:04:54.529Z,441
2018-12-09T09:06:01.741Z,441
2018-12-09T09:07:08.954Z,441
2018-12-09T09:08:16.157Z,441
2018-12-09T09:09:23.381Z,440
2018-12-09T09:10:30.592Z,441
2018-12-09T09:11:37.816Z,440
2018-12-09T09:12:45.031Z,441
2018-12-09T09:13:52.267Z,440
2018-12-09T09:14:59.467Z,440
2018-12-09T09:16:06.682Z,441
2018-12-09T09:17:13.890Z,440
2018-12-09T09:18:21.102Z,439
2018-12-09T09:19:28.311Z,439
2018-12-09T09:20:35.247Z,441
2018-12-09T09:21:42.444Z,440
2018-12-09T09:22:49.399Z,440
2018-12-09T09:23:56.614Z,440
2018-12-09T09:25:03.835Z,440
2018-12-09T09:26:11.045Z,439
2018-12-09T09:27:18.287Z,439
2018-12-09T09:28:25.492Z,439
2018-12-09T09:29:32.714Z,439
2018-12-09T09:30:39.372Z,439
2018-12-09T09:31:46.593Z,439
2018-12-09T09:32:53.793Z,439
2018-12-09T09:34:00.466Z,439
2018-12-09T09:35:07.401Z,439
2018-12-09T09:36:14.624Z,440
2018-12-09T09:37:21.832Z,438
2018-12-09T09:38:29.053Z,439
2018-12-09T09:39:36.266Z,438
2018-12-09T09:40:43.487Z,437
2018-12-09T09:41:50.725Z,438
2018-12-09T09:42:57.947Z,439
2018-12-09T09:44:05.160Z,438
2018-12-09T09:45:12.383Z,438
2018-12-09T09:46:19.596Z,437
2018-12-09T09:47:26.543Z,438
2018-12-09T09:48:33.747Z,438
2018-12-09T09:49:40.983Z,437
2018-12-09T09:50:48.201Z,438
2018-12-09T09:51:55.459Z,438
2018-12-09T09:53:02.665Z,437
2018-12-09T09:54:09.944Z,437
2018-12-09T09:55:17.142Z,437
2018-12-09T09:56:24.092Z,439
2018-12-09T09:57:31.298Z,438
2018-12-09T09:58:38.518Z,438
2018-12-09T09:59:45.453Z,437
2018-12-09T10:00:52.389Z,438
2018-12-09T10:01:59.594Z,438
2018-12-09T10:03:06.814Z,445
2018-12-09T10:04:14.026Z,448
2018-12-09T10:05:21.243Z,444
2018-12-09T10:06:28.498Z,441
2018-12-09T10:07:35.730Z,440
2018-12-09T10:08:42.664Z,440
2018-12-09T10:09:49.611Z,438
2018-12-09T10:10:56.812Z,438
2018-12-09T10:12:03.763Z,438
2018-12-09T10:13:10.971Z,438
2018-12-09T10:14:18.194Z,437
2018-12-09T10:15:25.130Z,437
2018-12-09T10:16:32.432Z,437
2018-12-09T10:17:39.720Z,437
2018-12-09T10:18:46.948Z,438
2018-12-09T10:19:54.133Z,440
2018-12-09T10:21:01.084Z,443
2018-12-09T10:22:08.112Z,440
2018-12-09T10:23:17.117Z,440
2018-12-09T10:24:24.316Z,439
2018-12-09T10:25:31.540Z,437
2018-12-09T10:26:38.753Z,438
2018-12-09T10:27:45.963Z,438
2018-12-09T10:28:52.629Z,440
2018-12-09T10:29:59.581Z,439
2018-12-09T10:31:06.525Z,437
2018-12-09T10:32:13.749Z,437
2018-12-09T10:33:20.690Z,438
2018-12-09T10:34:27.922Z,438
2018-12-09T10:35:35.139Z,439
2018-12-09T10:36:42.341Z,447
2018-12-09T10:37:49.278Z,456
2018-12-09T10:38:56.506Z,454
2018-12-09T10:40:03.725Z,463
2018-12-09T10:41:10.952Z,464
2018-12-09T10:42:18.162Z,468
2018-12-09T10:43:25.379Z,471
2018-12-09T10:44:32.589Z,473
2018-12-09T10:45:39.824Z,474
2018-12-09T10:46:47.034Z,469
2018-12-09T10:47:53.983Z,467
2018-12-09T10:49:01.210Z,465
2018-12-09T10:50:08.168Z,463
2018-12-09T10:51:15.375Z,459
2018-12-09T10:52:22.329Z,454
2018-12-09T10:53:29.536Z,456
2018-12-09T10:54:36.762Z,446
2018-12-09T10:55:43.692Z,439
2018-12-09T10:56:50.908Z,438
2018-12-09T10:57:58.371Z,437
2018-12-09T10:59:05.328Z,435
2018-12-09T11:00:12.543Z,437
2018-12-09T11:01:19.759Z,435
2018-12-09T11:02:26.975Z,436
2018-12-09T11:03:34.015Z,434
2018-12-09T11:04:41.220Z,434
2018-12-09T11:05:48.172Z,436
2018-12-09T11:06:55.376Z,436
2018-12-09T11:08:02.605Z,438
2018-12-09T11:09:09.539Z,438
2018-12-09T11:10:16.770Z,438
2018-12-09T11:11:23.991Z,438
2018-12-09T11:12:31.208Z,437
2018-12-09T11:13:38.418Z,436
2018-12-09T11:14:45.645Z,437
2018-12-09T11:15:52.859Z,438
2018-12-09T11:17:00.089Z,437
2018-12-09T11:18:06.818Z,438
2018-12-09T11:19:13.502Z,439
2018-12-09T11:20:20.922Z,439
2018-12-09T11:21:31.886Z,439
2018-12-09T11:22:38.833Z,440
2018-12-09T11:23:46.055Z,439
2018-12-09T11:24:53.267Z,439
2018-12-09T11:26:00.503Z,438
2018-12-09T11:27:07.719Z,438
2018-12-09T11:28:14.954Z,439
2018-12-09T11:29:22.176Z,437
2018-12-09T11:30:29.411Z,439
2018-12-09T11:31:36.637Z,437
2018-12-09T11:32:43.587Z,437
2018-12-09T11:33:50.525Z,438
2018-12-09T11:34:57.219Z,438
2018-12-09T11:36:04.435Z,437
2018-12-09T11:37:11.394Z,438
2018-12-09T11:38:18.342Z,437
2018-12-09T11:39:25.298Z,438
2018-12-09T11:40:32.243Z,435
2018-12-09T11:41:39.468Z,437
2018-12-09T11:42:46.701Z,437
2018-12-09T11:43:53.671Z,435
2018-12-09T11:45:00.903Z,437
2018-12-09T11:46:08.154Z,435
2018-12-09T11:47:15.468Z,437
2018-12-09T11:48:22.895Z,436
2018-12-09T11:49:29.883Z,435
2018-12-09T11:50:36.900Z,435
2018-12-09T11:51:44.125Z,434
2018-12-09T11:52:51.363Z,435
2018-12-09T11:53:58.588Z,435
2018-12-09T11:55:05.808Z,434
2018-12-09T11:56:13.031Z,431
2018-12-09T11:57:20.265Z,432
2018-12-09T11:58:27.495Z,430
2018-12-09T11:59:34.945Z,430
2018-12-09T12:00:42.174Z,429
2018-12-09T12:01:49.151Z,428
2018-12-09T12:02:56.369Z,429
2018-12-09T12:04:03.604Z,428
2018-12-09T12:05:10.835Z,427
2018-12-09T12:06:17.795Z,429
2018-12-09T12:07:25.025Z,432
2018-12-09T12:08:32.259Z,434
2018-12-09T12:09:39.491Z,434
2018-12-09T12:10:46.716Z,431
2018-12-09T12:11:53.940Z,447
2018-12-09T12:13:00.886Z,452
2018-12-09T12:14:07.833Z,454
2018-12-09T12:15:15.081Z,455
2018-12-09T12:16:22.015Z,457
2018-12-09T12:17:29.259Z,461
2018-12-09T12:18:36.459Z,462
2018-12-09T12:19:43.428Z,464
2018-12-09T12:20:50.670Z,466
2018-12-09T12:21:57.875Z,466
2018-12-09T12:23:05.115Z,469
2018-12-09T12:24:12.085Z,470
2018-12-09T12:25:19.313Z,471
2018-12-09T12:26:26.552Z,470
2018-12-09T12:27:33.768Z,470
2018-12-09T12:28:40.734Z,470
2018-12-09T12:29:47.942Z,471
2018-12-09T12:30:55.168Z,472
2018-12-09T12:32:02.394Z,472
2018-12-09T12:33:09.632Z,471
2018-12-09T12:34:16.861Z,467
2018-12-09T12:35:23.814Z,454
2018-12-09T12:36:31.027Z,445
2018-12-09T12:37:38.271Z,440
2018-12-09T12:38:45.505Z,440
2018-12-09T12:39:52.725Z,439
2018-12-09T12:40:59.953Z,439
2018-12-09T12:42:06.922Z,438
2018-12-09T12:43:14.149Z,439
2018-12-09T12:44:21.388Z,438
2018-12-09T12:45:28.339Z,437
2018-12-09T12:46:35.591Z,437
2018-12-09T12:47:42.815Z,437
2018-12-09T12:48:50.034Z,439
2018-12-09T12:49:57.267Z,438
2018-12-09T12:51:04.508Z,438
2018-12-09T12:52:11.742Z,437
2018-12-09T12:53:18.986Z,437
2018-12-09T12:54:26.221Z,437
2018-12-09T12:55:33.440Z,438
2018-12-09T12:56:40.674Z,437
2018-12-09T12:57:47.920Z,438
2018-12-09T12:58:54.866Z,437
2018-12-09T13:00:02.122Z,437
2018-12-09T13:01:09.347Z,437
2018-12-09T13:02:16.588Z,437
2018-12-09T13:03:23.809Z,437
2018-12-09T13:04:31.044Z,438
2018-12-09T13:05:38.280Z,439
2018-12-09T13:06:45.510Z,438
2018-12-09T13:07:52.733Z,438
2018-12-09T13:08:59.968Z,439
2018-12-09T13:10:06.637Z,439
2018-12-09T13:11:13.870Z,439
2018-12-09T13:12:20.808Z,439
2018-12-09T13:13:28.046Z,438
2018-12-09T13:14:34.997Z,439
2018-12-09T13:15:42.110Z,438
2018-12-09T13:16:49.334Z,439
2018-12-09T13:17:57.076Z,439
2018-12-09T13:19:04.318Z,439
2018-12-09T13:20:11.558Z,441
2018-12-09T13:21:18.798Z,440
2018-12-09T13:22:25.474Z,439
2018-12-09T13:23:32.711Z,441
2018-12-09T13:24:39.954Z,440
2018-12-09T13:25:47.180Z,462
2018-12-09T13:26:54.154Z,463
2018-12-09T13:28:01.387Z,463
2018-12-09T13:29:08.366Z,470
2018-12-09T13:30:15.341Z,466
2018-12-09T13:31:22.461Z,469
2018-12-09T13:32:29.158Z,471
2018-12-09T13:33:36.381Z,473
2018-12-09T13:34:43.606Z,472
2018-12-09T13:35:50.550Z,471
2018-12-09T13:36:57.776Z,470
2018-12-09T13:38:04.744Z,467
2018-12-09T13:39:11.732Z,467
2018-12-09T13:40:18.970Z,468
2018-12-09T13:41:26.190Z,470
2018-12-09T13:42:33.173Z,476
2018-12-09T13:43:40.397Z,477
2018-12-09T13:44:47.647Z,478
2018-12-09T13:45:54.868Z,479
2018-12-09T13:47:02.099Z,479
2018-12-09T13:48:09.052Z,471
2018-12-09T13:49:16.520Z,466
2018-12-09T13:50:23.742Z,461
2018-12-09T13:51:30.986Z,458
2018-12-09T13:52:37.942Z,459
2018-12-09T13:53:45.227Z,460
2018-12-09T13:54:52.441Z,459
2018-12-09T13:55:59.695Z,461
2018-12-09T13:57:07.009Z,461
2018-12-09T13:58:13.976Z,463
2018-12-09T13:59:21.219Z,465
2018-12-09T14:00:28.667Z,464
2018-12-09T14:01:35.913Z,463
2018-12-09T14:02:42.948Z,464
2018-12-09T14:03:50.174Z,462
2018-12-09T14:04:57.127Z,461
2018-12-09T14:06:04.362Z,460
2018-12-09T14:07:11.335Z,460
2018-12-09T14:08:18.555Z,461
2018-12-09T14:09:25.967Z,460
2018-12-09T14:10:32.925Z,459
2018-12-09T14:11:40.169Z,459
2018-12-09T14:12:47.620Z,458
2018-12-09T14:13:54.600Z,459
2018-12-09T14:15:01.938Z,460
2018-12-09T14:16:08.659Z,460
2018-12-09T14:17:16.339Z,461
2018-12-09T14:18:22.782Z,460
2018-12-09T14:19:30.022Z,461
2018-12-09T14:20:37.305Z,461
2018-12-09T14:21:44.609Z,460
2018-12-09T14:22:51.832Z,459
2018-12-09T14:23:59.082Z,457
2018-12-09T14:25:05.775Z,457
2018-12-09T14:26:13.001Z,458
2018-12-09T14:27:19.974Z,457
2018-12-09T14:28:27.966Z,457
2018-12-09T14:29:35.153Z,457
2018-12-09T14:30:42.114Z,457
2018-12-09T14:31:49.419Z,457
2018-12-09T14:32:56.880Z,457
2018-12-09T14:34:04.274Z,454
2018-12-09T14:35:11.521Z,450
2018-12-09T14:36:18.786Z,448
2018-12-09T14:37:25.794Z,447
2018-12-09T14:38:33.047Z,447
2018-12-09T14:39:39.997Z,445
2018-12-09T14:40:47.151Z,444
2018-12-09T14:41:54.263Z,444
2018-12-09T14:43:01.493Z,444
2018-12-09T14:44:08.723Z,444
2018-12-09T14:45:15.702Z,443
2018-12-09T14:46:22.661Z,443
2018-12-09T14:47:29.777Z,441
2018-12-09T14:48:36.718Z,441
2018-12-09T14:49:43.677Z,442
2018-12-09T14:50:51.120Z,442
2018-12-09T14:51:58.554Z,442
2018-12-09T14:53:05.238Z,441
2018-12-09T14:54:12.257Z,441
2018-12-09T14:55:19.204Z,441
2018-12-09T14:56:26.197Z,441
2018-12-09T14:57:33.643Z,442
2018-12-09T14:58:40.645Z,441
2018-12-09T14:59:47.847Z,440
2018-12-09T15:00:55.095Z,441
2018-12-09T15:02:02.365Z,441
2018-12-09T15:03:09.745Z,441
2018-12-09T15:04:17.251Z,441
2018-12-09T15:05:24.711Z,440
2018-12-09T15:06:31.783Z,442
2018-12-09T15:07:38.639Z,440
2018-12-09T15:08:45.605Z,441
2018-12-09T15:09:52.349Z,441
2018-12-09T15:10:59.552Z,441
2018-12-09T15:12:07.008Z,441
2018-12-09T15:13:14.321Z,440
2018-12-09T15:14:21.285Z,440
2018-12-09T15:15:27.950Z,441
2018-12-09T15:16:34.912Z,440
2018-12-09T15:17:41.892Z,442
2018-12-09T15:18:48.750Z,440
2018-12-09T15:19:56.232Z,441
2018-12-09T15:21:03.469Z,441
2018-12-09T15:22:10.432Z,441
2018-12-09T15:23:17.688Z,441
2018-12-09T15:24:24.689Z,441
2018-12-09T15:25:31.925Z,441